Time;durP1;ratioP1;P1;durP2;ratioP2;P2;SDS_P1;SDS_P2;PMS_P1;PMS_P2;Temp;Humidity;BMP_temperature;BMP_pressure;BME280_temperature;BME280_humidity;BME280_pressure;Samples;Min_cycle;Max_cycle;Signal;HPM_P1;HPM_P2
2023/01/21 00:02:41;;;;;;;30.75;11.05;;;;;;;;;;6229409;22;20022;-90
2023/01/21 00:05:09;;;;;;;33.60;11.18;;;;;;;;;;6275392;22;20034;-90
2023/01/21 00:08:05;;;;;;;26.75;10.50;;;;;;;;;;6274488;22;20018;-91
2023/01/21 00:10:39;;;;;;;27.58;10.30;;;;;;;;;;6301476;22;20379;-92
2023/01/21 00:13:07;;;;;;;27.85;10.10;;;;;;;;;;6260507;22;20068;-91
2023/01/21 00:15:35;;;;;;;22.70;8.68;;;;;;;;;;6276212;22;20027;-90
2023/01/21 00:18:03;;;;;;;27.30;9.55;;;;;;;;;;6285088;22;20019;-90
2023/01/21 00:20:31;;;;;;;33.05;11.13;;;;;;;;;;6250697;22;20045;-91
2023/01/21 00:22:59;;;;;;;25.27;8.93;;;;;;;;;;6285616;22;20011;-91
2023/01/21 00:25:31;;;;;;;26.00;9.73;;;;;;;;;;6313220;22;20019;-91
2023/01/21 00:27:59;;;;;;;24.90;8.55;;;;;;;;;;6260202;22;20019;-91
2023/01/21 00:30:27;;;;;;;27.45;9.30;;;;;;;;;;6250696;22;20015;-91
2023/01/21 00:32:55;;;;;;;26.98;10.07;;;;;;;;;;6259156;22;20019;-91
2023/01/21 00:35:23;;;;;;;26.92;10.07;;;;;;;;;;6260569;22;20466;-91
2023/01/21 00:37:55;;;;;;;27.25;9.98;;;;;;;;;;6277446;22;20072;-91
2023/01/21 00:40:23;;;;;;;25.67;10.80;;;;;;;;;;6249697;22;20027;-90
2023/01/21 00:42:57;;;;;;;27.02;9.30;;;;;;;;;;6249218;22;20015;-91
2023/01/21 00:45:29;;;;;;;24.17;9.13;;;;;;;;;;6284889;22;20050;-90
2023/01/21 00:47:57;;;;;;;24.58;9.98;;;;;;;;;;6272858;22;20368;-91
2023/01/21 00:50:25;;;;;;;35.97;10.23;;;;;;;;;;6259557;22;20097;-91
2023/01/21 00:52:53;;;;;;;27.23;9.88;;;;;;;;;;6249340;22;20019;-92
2023/01/21 00:55:26;;;;;;;26.65;9.23;;;;;;;;;;6313190;22;20022;-91
2023/01/21 00:57:54;;;;;;;22.00;8.52;;;;;;;;;;6285048;22;20094;-91
2023/01/21 01:00:45;;;;;;;29.23;10.57;;;;;;;;;;6255085;22;20014;-91
2023/01/21 01:03:13;;;;;;;23.83;9.43;;;;;;;;;;6286395;22;20045;-91
2023/01/21 01:05:47;;;;;;;23.13;9.63;;;;;;;;;;6275310;22;20520;-92
2023/01/21 01:08:15;;;;;;;25.27;9.82;;;;;;;;;;6250042;22;20023;-91
2023/01/21 01:10:43;;;;;;;26.27;10.20;;;;;;;;;;6250108;22;20038;-91
2023/01/21 01:13:11;;;;;;;26.48;9.48;;;;;;;;;;6312897;22;20022;-91
2023/01/21 01:15:39;;;;;;;26.00;9.98;;;;;;;;;;6250575;22;20068;-92
2023/01/21 01:18:33;;;;;;;22.77;9.35;;;;;;;;;;6250552;22;20099;-91
2023/01/21 01:21:27;;;;;;;21.05;9.60;;;;;;;;;;6255005;22;20023;-91
2023/01/21 01:24:05;;;;;;;25.02;9.32;;;;;;;;;;6249306;22;20024;-91
2023/01/21 01:26:35;;;;;;;31.23;10.50;;;;;;;;;;6260892;22;20065;-92
2023/01/21 01:29:04;;;;;;;28.83;10.30;;;;;;;;;;6250180;22;20026;-91
2023/01/21 01:31:37;;;;;;;29.92;9.70;;;;;;;;;;6287844;22;20016;-91
2023/01/21 01:34:05;;;;;;;24.95;8.57;;;;;;;;;;6227713;22;20023;-91
2023/01/21 01:36:33;;;;;;;22.00;8.05;;;;;;;;;;6278069;22;20497;-93
2023/01/21 01:39:01;;;;;;;23.63;9.90;;;;;;;;;;6278295;22;20023;-91
2023/01/21 01:41:33;;;;;;;27.05;9.75;;;;;;;;;;6287994;22;20046;-92
2023/01/21 01:44:25;;;;;;;23.15;9.10;;;;;;;;;;6288175;22;20019;-91
2023/01/21 01:46:57;;;;;;;22.85;9.77;;;;;;;;;;6288476;22;20098;-92
2023/01/21 01:49:25;;;;;;;23.08;10.18;;;;;;;;;;6288093;22;20016;-91
2023/01/21 01:51:59;;;;;;;26.90;8.85;;;;;;;;;;6314158;22;20023;-90
2023/01/21 01:54:30;;;;;;;30.52;10.68;;;;;;;;;;6286337;22;20461;-90
2023/01/21 01:57:06;;;;;;;26.23;9.63;;;;;;;;;;6249780;22;20031;-90
2023/01/21 01:59:33;;;;;;;25.95;10.43;;;;;;;;;;6260571;22;20094;-90
2023/01/21 02:02:11;;;;;;;30.20;10.45;;;;;;;;;;6274175;22;20393;-90
2023/01/21 02:04:43;;;;;;;24.33;10.15;;;;;;;;;;6276152;22;20027;-90
2023/01/21 02:07:17;;;;;;;25.65;10.40;;;;;;;;;;6286512;22;20023;-90
2023/01/21 02:10:11;;;;;;;22.23;8.05;;;;;;;;;;6313628;22;20606;-90
2023/01/21 02:12:41;;;;;;;25.95;9.60;;;;;;;;;;6250739;22;20042;-90
2023/01/21 02:16:10;;;;;;;28.95;10.40;;;;;;;;;;6283708;22;20515;-91
2023/01/21 02:19:35;;;;;;;24.15;9.10;;;;;;;;;;6285432;22;20019;-90
2023/01/21 02:22:27;;;;;;;24.17;9.15;;;;;;;;;;6312968;22;20019;-90
2023/01/21 02:25:19;;;;;;;20.98;8.93;;;;;;;;;;6261497;22;20026;-91
2023/01/21 02:28:04;;;;;;;21.58;8.80;;;;;;;;;;6250445;22;20099;-91
2023/01/21 02:31:06;;;;;;;27.50;9.60;;;;;;;;;;6275015;22;20027;-90
2023/01/21 02:33:52;;;;;;;22.02;9.02;;;;;;;;;;6274539;22;20019;-91
2023/01/21 02:36:40;;;;;;;21.85;9.25;;;;;;;;;;6285761;22;20076;-90
2023/01/21 02:39:37;;;;;;;25.92;9.13;;;;;;;;;;6286487;22;20007;-90
2023/01/21 02:42:23;;;;;;;26.10;9.98;;;;;;;;;;6313263;22;20015;-90
2023/01/21 02:45:18;;;;;;;31.60;10.82;;;;;;;;;;6314473;22;20054;-91
2023/01/21 02:48:05;;;;;;;29.35;9.85;;;;;;;;;;6286912;22;20019;-92
2023/01/21 02:50:42;;;;;;;;;;;;;;;;;;6250195;22;20020;-91
2023/01/21 02:53:37;;;;;;;20.23;8.73;;;;;;;;;;6226039;22;20026;-91
2023/01/21 02:56:11;;;;;;;22.13;9.82;;;;;;;;;;6298143;22;20023;-91
2023/01/21 02:58:47;;;;;;;26.73;9.90;;;;;;;;;;6313594;22;20026;-92
2023/01/21 03:01:44;;;;;;;31.67;10.70;;;;;;;;;;6287884;22;20635;-90
2023/01/21 03:04:38;;;;;;;23.05;9.60;;;;;;;;;;6314052;22;20015;-91
2023/01/21 03:07:25;;;;;;;25.25;9.43;;;;;;;;;;6283294;22;20050;-90
2023/01/21 03:10:37;;;;;;;24.77;8.90;;;;;;;;;;6286336;22;20018;-92
2023/01/21 03:16:55;;;;;;;25.67;9.88;;;;;;;;;;6286536;22;20015;-90
2023/01/21 03:16:57;;;;;;;22.75;9.00;;;;;;;;;;6276323;22;20514;-90
2023/01/21 03:19:41;;;;;;;23.48;9.30;;;;;;;;;;6250859;22;20118;-91
2023/01/21 03:22:14;;;;;;;29.75;11.38;;;;;;;;;;6313683;22;20015;-90
2023/01/21 03:24:45;;;;;;;26.67;9.52;;;;;;;;;;6287119;22;20108;-90
2023/01/21 03:27:25;;;;;;;23.23;9.98;;;;;;;;;;6288632;22;20026;-90
2023/01/21 03:29:57;;;;;;;23.23;9.38;;;;;;;;;;6312129;22;20455;-91
2023/01/21 03:32:54;;;;;;;27.92;10.30;;;;;;;;;;6313082;22;20015;-91
2023/01/21 03:35:30;;;;;;;27.40;10.25;;;;;;;;;;6286713;22;20025;-91
2023/01/21 03:38:16;;;;;;;22.20;9.63;;;;;;;;;;6286405;22;20029;-91
2023/01/21 03:41:00;;;;;;;23.55;8.77;;;;;;;;;;6262439;22;20019;-90
2023/01/21 03:43:53;;;;;;;19.65;9.32;;;;;;;;;;6276531;22;20462;-90
2023/01/21 03:46:44;;;;;;;23.92;9.45;;;;;;;;;;6287691;22;20025;-91
2023/01/21 03:49:35;;;;;;;22.20;9.23;;;;;;;;;;6250568;22;20023;-90
2023/01/21 03:52:27;;;;;;;22.17;9.13;;;;;;;;;;6313997;22;20010;-90
2023/01/21 03:55:21;;;;;;;25.90;9.52;;;;;;;;;;6291998;22;20019;-91
2023/01/21 03:57:49;;;;;;;26.00;10.27;;;;;;;;;;6276061;22;20459;-90
2023/01/21 04:00:17;;;;;;;26.92;10.50;;;;;;;;;;6313708;22;20068;-91
2023/01/21 04:03:11;;;;;;;23.90;10.98;;;;;;;;;;6275579;22;20027;-91
2023/01/21 04:05:44;;;;;;;25.95;9.27;;;;;;;;;;6313960;22;20019;-90
2023/01/21 04:08:11;;;;;;;25.27;10.02;;;;;;;;;;6250108;22;20628;-90
2023/01/21 04:10:39;;;;;;;23.20;9.88;;;;;;;;;;6286671;22;20123;-91
2023/01/21 04:13:11;;;;;;;24.50;9.25;;;;;;;;;;6261122;22;20106;-91
2023/01/21 04:15:39;;;;;;;24.40;8.88;;;;;;;;;;6311059;22;20456;-91
2023/01/21 04:18:07;;;;;;;23.92;9.65;;;;;;;;;;6311494;22;20066;-91
2023/01/21 04:20:35;;;;;;;20.52;8.57;;;;;;;;;;6274491;22;20101;-90
2023/01/21 04:23:03;;;;;;;25.95;10.35;;;;;;;;;;6273509;22;20039;-90
2023/01/21 04:25:31;;;;;;;21.85;9.25;;;;;;;;;;6274564;22;20047;-91
2023/01/21 04:27:59;;;;;;;23.42;10.02;;;;;;;;;;6310948;22;20031;-91
2023/01/21 04:30:27;;;;;;;22.83;10.32;;;;;;;;;;6301071;22;20023;-90
2023/01/21 04:32:55;;;;;;;28.05;10.27;;;;;;;;;;6275854;22;20843;-92
2023/01/21 04:35:35;;;;;;;24.60;9.20;;;;;;;;;;6313307;22;20513;-91
2023/01/21 04:38:35;;;;;;;30.13;10.98;;;;;;;;;;6226312;22;20015;-91
2023/01/21 04:41:03;;;;;;;25.58;10.13;;;;;;;;;;6224550;22;20015;-91
2023/01/21 04:43:31;;;;;;;27.58;10.52;;;;;;;;;;6313319;22;20064;-91
2023/01/21 04:45:59;;;;;;;28.20;10.75;;;;;;;;;;6286377;22;20023;-92
2023/01/21 04:48:27;;;;;;;32.10;11.43;;;;;;;;;;6313861;22;20019;-91
2023/01/21 04:50:55;;;;;;;32.00;11.15;;;;;;;;;;6275708;22;20020;-90
2023/01/21 04:53:27;;;;;;;34.13;11.30;;;;;;;;;;6286224;22;20102;-90
2023/01/21 04:55:59;;;;;;;30.50;11.85;;;;;;;;;;6251748;22;20019;-91
2023/01/21 04:58:27;;;;;;;33.35;12.30;;;;;;;;;;6249920;22;20015;-91
2023/01/21 05:00:55;;;;;;;29.60;11.50;;;;;;;;;;6261045;22;20339;-92
2023/01/21 05:03:23;;;;;;;34.78;12.85;;;;;;;;;;6272771;22;20023;-91
2023/01/21 05:05:55;;;;;;;30.33;11.18;;;;;;;;;;6313335;22;20019;-91
2023/01/21 05:08:23;;;;;;;36.70;12.82;;;;;;;;;;6285796;22;20580;-91
2023/01/21 05:10:51;;;;;;;41.85;11.82;;;;;;;;;;6225087;22;20025;-91
2023/01/21 05:13:19;;;;;;;37.55;12.48;;;;;;;;;;6286429;22;20011;-90
2023/01/21 05:15:47;;;;;;;33.28;12.43;;;;;;;;;;6312208;22;20015;-91
2023/01/21 05:18:21;;;;;;;34.80;11.93;;;;;;;;;;6261453;22;20454;-90
2023/01/21 05:20:49;;;;;;;33.03;11.45;;;;;;;;;;6285828;22;20495;-90
2023/01/21 05:23:17;;;;;;;34.88;13.00;;;;;;;;;;6312714;22;20015;-91
2023/01/21 05:25:49;;;;;;;35.47;12.30;;;;;;;;;;6285986;22;20026;-91
2023/01/21 05:28:21;;;;;;;33.67;11.50;;;;;;;;;;6286647;22;20561;-91
2023/01/21 05:31:21;;;;;;;35.80;12.32;;;;;;;;;;6312593;22;20015;-91
2023/01/21 05:33:49;;;;;;;37.20;12.57;;;;;;;;;;6312389;22;20401;-91
2023/01/21 05:36:17;;;;;;;39.33;12.75;;;;;;;;;;6286022;22;20046;-91
2023/01/21 05:38:49;;;;;;;35.40;11.48;;;;;;;;;;6286973;22;20015;-90
2023/01/21 05:41:41;;;;;;;36.85;11.52;;;;;;;;;;6286089;22;20367;-91
2023/01/21 05:44:14;;;;;;;41.22;12.55;;;;;;;;;;6285886;22;20042;-91
2023/01/21 05:46:45;;;;;;;36.30;13.18;;;;;;;;;;6250775;22;20106;-91
2023/01/21 05:49:13;;;;;;;44.40;13.82;;;;;;;;;;6275226;22;20102;-91
2023/01/21 05:51:41;;;;;;;43.70;13.70;;;;;;;;;;6275565;22;20030;-92
2023/01/21 05:54:09;;;;;;;38.22;13.65;;;;;;;;;;6285746;22;20452;-91
2023/01/21 05:57:01;;;;;;;28.85;10.30;;;;;;;;;;6285592;22;20007;-90
2023/01/21 05:59:37;;;;;;;37.05;12.20;;;;;;;;;;6310923;22;20344;-91
2023/01/21 06:02:37;;;;;;;32.25;10.98;;;;;;;;;;6292456;22;20022;-91
2023/01/21 06:05:31;;;;;;;39.95;12.35;;;;;;;;;;6281304;22;20408;-90
2023/01/21 06:08:01;;;;;;;28.42;10.85;;;;;;;;;;6284682;22;20045;-91
2023/01/21 06:10:31;;;;;;;31.83;10.13;;;;;;;;;;6285462;22;20041;-91
2023/01/21 06:13:11;;;;;;;30.60;11.48;;;;;;;;;;6274531;22;20016;-91
2023/01/21 06:15:57;;;;;;;33.08;11.73;;;;;;;;;;6287336;22;20045;-91
2023/01/21 06:18:27;;;;;;;31.35;10.77;;;;;;;;;;6286975;22;20011;-91
2023/01/21 06:21:01;;;;;;;31.27;12.18;;;;;;;;;;6287628;22;20015;-91
2023/01/21 06:23:29;;;;;;;33.38;11.98;;;;;;;;;;6313993;22;20015;-90
2023/01/21 06:26:00;;;;;;;35.28;12.15;;;;;;;;;;6313683;22;20094;-91
2023/01/21 06:28:30;;;;;;;36.30;13.10;;;;;;;;;;6287709;22;20045;-90
2023/01/21 06:31:03;;;;;;;34.85;12.93;;;;;;;;;;6314509;22;20011;-91
2023/01/21 06:33:33;;;;;;;37.50;10.98;;;;;;;;;;6286627;22;20026;-90
2023/01/21 06:36:27;;;;;;;33.03;11.32;;;;;;;;;;6251560;22;20014;-91
2023/01/21 06:38:57;;;;;;;32.58;11.52;;;;;;;;;;6250663;22;20015;-91
2023/01/21 06:41:27;;;;;;;37.08;12.18;;;;;;;;;;6262682;22;20011;-90
2023/01/21 06:43:55;;;;;;;31.05;11.35;;;;;;;;;;6286583;22;20041;-90
2023/01/21 06:46:23;;;;;;;32.42;11.55;;;;;;;;;;6287301;22;20868;-91
2023/01/21 06:49:15;;;;;;;32.67;11.23;;;;;;;;;;6256230;22;20026;-90
2023/01/21 06:51:43;;;;;;;27.98;11.10;;;;;;;;;;6313677;22;20459;-91
2023/01/21 06:54:11;;;;;;;37.42;12.15;;;;;;;;;;6276225;22;20144;-90
2023/01/21 06:56:42;;;;;;;30.77;11.00;;;;;;;;;;6276877;22;20023;-90
2023/01/21 06:59:09;;;;;;;34.42;10.93;;;;;;;;;;6276191;22;20120;-91
2023/01/21 07:01:41;;;;;;;35.17;12.65;;;;;;;;;;6275889;22;20019;-90
2023/01/21 07:04:09;;;;;;;40.97;12.20;;;;;;;;;;6286126;22;20407;-91
2023/01/21 07:06:37;;;;;;;36.08;12.30;;;;;;;;;;6250979;22;20020;-90
2023/01/21 07:09:11;;;;;;;41.00;13.68;;;;;;;;;;6287186;22;20137;-90
2023/01/21 07:11:39;;;;;;;35.13;10.93;;;;;;;;;;6286577;22;20019;-90
2023/01/21 07:14:11;;;;;;;34.08;11.48;;;;;;;;;;6313152;22;20114;-90
2023/01/21 07:17:03;;;;;;;32.97;12.13;;;;;;;;;;6313063;22;20074;-90
2023/01/21 07:19:36;;;;;;;29.40;10.75;;;;;;;;;;6286818;22;20015;-90
2023/01/21 07:22:03;;;;;;;39.38;12.77;;;;;;;;;;6284957;22;20092;-90
2023/01/21 07:24:31;;;;;;;41.60;14.27;;;;;;;;;;6261270;22;20015;-90
2023/01/21 07:26:59;;;;;;;45.28;13.88;;;;;;;;;;6286515;22;20098;-90
2023/01/21 07:29:31;;;;;;;40.47;11.60;;;;;;;;;;6313164;22;20407;-91
2023/01/21 07:32:03;;;;;;;34.65;11.98;;;;;;;;;;6313540;22;20087;-90
2023/01/21 07:34:31;;;;;;;35.08;10.90;;;;;;;;;;6313655;22;20008;-90
2023/01/21 07:36:59;;;;;;;43.28;13.55;;;;;;;;;;6276059;22;20522;-92
2023/01/21 07:39:27;;;;;;;33.83;11.32;;;;;;;;;;6285961;22;20023;-90
2023/01/21 07:41:55;;;;;;;34.80;12.05;;;;;;;;;;6285461;22;20050;-90
2023/01/21 07:44:27;;;;;;;39.05;11.65;;;;;;;;;;6312565;22;20515;-90
2023/01/21 07:46:55;;;;;;;37.42;12.07;;;;;;;;;;6285913;22;20035;-90
2023/01/21 07:49:23;;;;;;;37.72;11.95;;;;;;;;;;6313324;22;20019;-90
2023/01/21 07:51:55;;;;;;;36.63;12.45;;;;;;;;;;6285982;22;20021;-90
2023/01/21 07:54:32;;;;;;;40.75;13.13;;;;;;;;;;6275169;22;20019;-90
2023/01/21 07:56:59;;;;;;;32.97;10.82;;;;;;;;;;6286069;22;20019;-90
2023/01/21 07:59:27;;;;;;;39.72;12.27;;;;;;;;;;6286318;22;20065;-90
2023/01/21 08:02:49;;;;;;;42.80;13.32;;;;;;;;;;6312443;22;20014;-91
2023/01/21 08:05:17;;;;;;;35.80;11.75;;;;;;;;;;6286591;22;20011;-90
2023/01/21 08:07:45;;;;;;;32.90;12.02;;;;;;;;;;6280110;22;20504;-90
2023/01/21 08:10:14;;;;;;;38.35;13.15;;;;;;;;;;6286611;22;20023;-91
2023/01/21 08:12:53;;;;;;;41.53;12.82;;;;;;;;;;6311423;22;20076;-90
2023/01/21 08:15:21;;;;;;;40.03;13.00;;;;;;;;;;6275578;22;20729;-91
2023/01/21 08:17:49;;;;;;;33.75;12.30;;;;;;;;;;6312851;22;20069;-90
2023/01/21 08:20:17;;;;;;;41.25;13.40;;;;;;;;;;6313431;22;20023;-91
2023/01/21 08:22:45;;;;;;;42.50;12.15;;;;;;;;;;6313003;22;20015;-90
2023/01/21 08:25:37;;;;;;;35.75;11.93;;;;;;;;;;6312931;22;20018;-90
2023/01/21 08:31:25;;;;;;;41.80;12.95;;;;;;;;;;6313082;22;20011;-91
2023/01/21 08:34:17;;;;;;;37.03;11.95;;;;;;;;;;6275392;22;20011;-90
2023/01/21 08:37:11;;;;;;;33.45;13.05;;;;;;;;;;6312633;22;20070;-89
2023/01/21 08:40:03;;;;;;;43.38;12.52;;;;;;;;;;6285381;22;20015;-91
2023/01/21 08:42:31;;;;;;;35.42;12.73;;;;;;;;;;6251257;22;20121;-90
2023/01/21 08:44:59;;;;;;;44.75;13.68;;;;;;;;;;6313096;22;20019;-91
2023/01/21 08:47:27;;;;;;;38.97;12.88;;;;;;;;;;6285791;22;20015;-91
2023/01/21 08:49:55;;;;;;;38.88;13.65;;;;;;;;;;6313640;22;20041;-90
2023/01/21 08:52:23;;;;;;;44.30;13.18;;;;;;;;;;6275046;22;20047;-91
2023/01/21 08:55:15;;;;;;;41.97;13.98;;;;;;;;;;6301785;22;20020;-91
2023/01/21 08:57:43;;;;;;;37.92;13.20;;;;;;;;;;6251204;22;20088;-90
2023/01/21 09:00:13;;;;;;;48.65;14.85;;;;;;;;;;6286847;22;20061;-91
2023/01/21 09:02:41;;;;;;;38.75;12.48;;;;;;;;;;6286340;22;20011;-91
2023/01/21 09:05:09;;;;;;;38.83;13.82;;;;;;;;;;6286326;22;20325;-91
2023/01/21 09:07:44;;;;;;;37.55;12.75;;;;;;;;;;6287418;22;20081;-91
2023/01/21 09:10:11;;;;;;;36.28;11.88;;;;;;;;;;6260070;22;20398;-88
2023/01/21 09:12:39;;;;;;;42.90;12.63;;;;;;;;;;6283951;22;20011;-90
2023/01/21 09:15:07;;;;;;;35.53;13.00;;;;;;;;;;6275233;22;20102;-89
2023/01/21 09:17:35;;;;;;;40.45;11.73;;;;;;;;;;6310784;22;20619;-90
2023/01/21 09:20:03;;;;;;;36.97;12.68;;;;;;;;;;6312746;22;20011;-90
2023/01/21 09:22:31;;;;;;;37.40;12.23;;;;;;;;;;6312814;22;20118;-88
2023/01/21 09:24:59;;;;;;;35.35;11.35;;;;;;;;;;6312478;22;20099;-90
2023/01/21 09:27:31;;;;;;;35.25;13.48;;;;;;;;;;6284849;22;20023;-90
2023/01/21 09:29:59;;;;;;;37.20;12.70;;;;;;;;;;6249688;22;20019;-90
2023/01/21 09:32:52;;;;;;;29.80;11.30;;;;;;;;;;6274616;22;20031;-91
2023/01/21 09:35:19;;;;;;;39.28;12.63;;;;;;;;;;6224395;22;20026;-90
2023/01/21 09:37:47;;;;;;;41.40;12.32;;;;;;;;;;6249269;22;20031;-90
2023/01/21 09:40:19;;;;;;;35.60;12.35;;;;;;;;;;6261005;22;20455;-89
2023/01/21 09:43:30;;;;;;;28.45;10.35;;;;;;;;;;6285169;22;20086;-90
2023/01/21 09:46:01;;;;;;;29.02;11.48;;;;;;;;;;6274018;22;20019;-90
2023/01/21 09:49:00;;;;;;;38.50;10.82;;;;;;;;;;6312086;22;20030;-90
2023/01/21 09:51:51;;;;;;;35.75;10.40;;;;;;;;;;6285423;22;20026;-89
2023/01/21 09:54:27;;;;;;;28.70;11.02;;;;;;;;;;6288926;22;20090;-90
2023/01/21 09:57:22;;;;;;;28.85;11.27;;;;;;;;;;6251927;22;20748;-91
2023/01/21 10:00:16;;;;;;;37.65;11.70;;;;;;;;;;6228144;22;20050;-90
2023/01/21 10:02:47;;;;;;;29.80;10.13;;;;;;;;;;6286270;22;20015;-90
2023/01/21 10:05:35;;;;;;;30.13;9.95;;;;;;;;;;6314836;22;20297;-91
2023/01/21 10:08:36;;;;;;;29.48;11.40;;;;;;;;;;6261554;22;20022;-89
2023/01/21 10:11:34;;;;;;;29.80;10.48;;;;;;;;;;6252350;22;20270;-91
2023/01/21 10:14:19;;;;;;;31.63;10.95;;;;;;;;;;6287315;22;20007;-92
2023/01/21 10:16:53;;;;;;;26.67;9.88;;;;;;;;;;6229344;22;20029;-91
2023/01/21 10:19:32;;;;;;;31.17;10.85;;;;;;;;;;6275471;22;20023;-91
2023/01/21 10:22:12;;;;;;;30.17;9.63;;;;;;;;;;6281606;22;20023;-92
2023/01/21 10:25:00;;;;;;;30.85;10.63;;;;;;;;;;6282636;22;20021;-91
2023/01/21 10:28:21;;;;;;;32.55;10.65;;;;;;;;;;6247308;22;20027;-92
2023/01/21 10:30:55;;;;;;;31.75;11.48;;;;;;;;;;6279598;22;20019;-92
2023/01/21 10:33:25;;;;;;;29.55;9.90;;;;;;;;;;6254848;22;20046;-92
2023/01/21 10:36:05;;;;;;;34.70;11.20;;;;;;;;;;6285575;22;20019;-94
2023/01/21 10:39:21;;;;;;;27.52;9.68;;;;;;;;;;6268149;22;20486;-92
2023/01/21 10:41:49;;;;;;;28.52;10.10;;;;;;;;;;6270647;22;20094;-92
2023/01/21 10:44:29;;;;;;;30.00;10.48;;;;;;;;;;6244812;22;20019;-90
2023/01/21 10:46:57;;;;;;;26.77;11.23;;;;;;;;;;6241027;22;20031;-90
2023/01/21 10:49:54;;;;;;;27.10;11.27;;;;;;;;;;6279476;22;20077;-91
2023/01/21 10:52:44;;;;;;;26.85;10.23;;;;;;;;;;6281689;22;20011;-91
2023/01/21 10:55:38;;;;;;;32.45;10.73;;;;;;;;;;6221926;22;20015;-92
2023/01/21 10:58:55;;;;;;;;;;;;;;;;;;;;;
2023/01/21 11:01:48;;;;;;;;;;;;;;;;;;6189409;23;20021;-91
2023/01/21 11:04:57;;;;;;;23.27;8.82;;;;;;;;;;6179325;23;19943;-91
2023/01/21 11:07:42;;;;;;;24.38;9.00;;;;;;;;;;6158718;23;20618;-91
2023/01/21 11:10:18;;;;;;;25.63;9.02;;;;;;;;;;6157676;23;20765;-91
2023/01/21 11:12:46;;;;;;;25.02;9.07;;;;;;;;;;6201596;23;20024;-91
2023/01/21 11:15:18;;;;;;;26.23;9.63;;;;;;;;;;6208346;23;20032;-91
2023/01/21 11:17:58;;;;;;;26.10;10.13;;;;;;;;;;6207144;23;20024;-94
2023/01/21 11:20:39;;;;;;;21.38;8.20;;;;;;;;;;6152257;23;20368;-91
2023/01/21 11:23:38;;;;;;;29.10;9.88;;;;;;;;;;6187789;23;20035;-92
2023/01/21 11:26:15;;;;;;;24.17;9.50;;;;;;;;;;6212742;23;20515;-91
2023/01/21 11:28:44;;;;;;;21.45;8.90;;;;;;;;;;6187098;23;20024;-91
2023/01/21 11:31:18;;;;;;;19.98;7.75;;;;;;;;;;6175676;23;20024;-92
2023/01/21 11:33:52;;;;;;;16.60;6.65;;;;;;;;;;6188302;23;20034;-91
2023/01/21 11:36:25;;;;;;;19.08;7.35;;;;;;;;;;6160876;23;20103;-94
2023/01/21 11:39:01;;;;;;;21.08;7.97;;;;;;;;;;6240163;22;20019;-93
2023/01/21 11:41:35;;;;;;;23.40;9.07;;;;;;;;;;6250655;22;20046;-94
2023/01/21 11:44:18;;;;;;;27.35;8.05;;;;;;;;;;6251065;22;20389;-93
2023/01/21 11:46:45;;;;;;;22.27;7.80;;;;;;;;;;6248160;22;20027;-93
2023/01/21 11:49:30;;;;;;;23.83;8.15;;;;;;;;;;6225544;22;20061;-94
2023/01/21 11:52:25;;;;;;;23.45;7.90;;;;;;;;;;6260868;22;20019;-91
2023/01/21 11:54:53;;;;;;;20.10;8.05;;;;;;;;;;6240019;22;20039;-92
2023/01/21 11:57:49;;;;;;;23.75;8.55;;;;;;;;;;6262137;22;20011;-93
2023/01/21 12:00:22;;;;;;;18.58;8.10;;;;;;;;;;6247617;22;20096;-87
2023/01/21 12:02:56;;;;;;;19.63;7.65;;;;;;;;;;6279208;22;20038;-89
2023/01/21 12:05:38;;;;;;;21.30;8.60;;;;;;;;;;6305847;22;20102;-90
2023/01/21 12:08:19;;;;;;;20.52;8.43;;;;;;;;;;6303759;22;20034;-90
2023/01/21 12:10:47;;;;;;;22.52;8.02;;;;;;;;;;6309215;22;20479;-90
2023/01/21 12:13:30;;;;;;;20.95;8.75;;;;;;;;;;6285182;22;20094;-95
2023/01/21 12:16:19;;;;;;;19.42;8.38;;;;;;;;;;6284910;22;20095;-91
2023/01/21 12:23:35;;;;;;;23.08;9.00;;;;;;;;;;6123599;23;20009;-91
2023/01/21 12:26:40;;;;;;;22.23;8.52;;;;;;;;;;6124494;23;20017;-92
2023/01/21 12:29:35;;;;;;;20.95;8.52;;;;;;;;;;6159417;23;20021;-92
2023/01/21 12:32:06;;;;;;;20.30;9.73;;;;;;;;;;6158965;23;20048;-92
2023/01/21 12:34:45;;;;;;;23.33;9.57;;;;;;;;;;6159961;23;20434;-92
2023/01/21 12:37:34;;;;;;;20.40;9.38;;;;;;;;;;6101377;23;20045;-92
2023/01/21 12:40:18;;;;;;;27.30;10.27;;;;;;;;;;6110976;23;20044;-92
2023/01/21 12:42:55;;;;;;;21.55;9.57;;;;;;;;;;6124948;23;20124;-92
2023/01/21 12:45:38;;;;;;;21.17;9.38;;;;;;;;;;6100959;23;20366;-92
2023/01/21 12:48:16;;;;;;;22.95;8.32;;;;;;;;;;6134687;23;20505;-92
2023/01/21 12:50:54;;;;;;;19.33;7.68;;;;;;;;;;6149344;23;20362;-93
2023/01/21 12:54:03;;;;;;;21.77;8.60;;;;;;;;;;6116833;23;20014;-92
2023/01/21 12:56:51;;;;;;;23.33;8.93;;;;;;;;;;6145990;22;20025;-92
2023/01/21 13:00:08;;;;;;;20.50;7.43;;;;;;;;;;6267319;22;20019;-93
2023/01/21 13:03:35;;;;;;;20.45;8.68;;;;;;;;;;6266253;22;20011;-92
2023/01/21 13:06:48;;;;;;;19.30;8.02;;;;;;;;;;6243494;22;20088;-93
2023/01/21 13:09:32;;;;;;;18.75;7.53;;;;;;;;;;6251056;22;20101;-92
2023/01/21 13:12:32;;;;;;;23.38;8.15;;;;;;;;;;6262635;22;20015;-92
2023/01/21 13:15:21;;;;;;;17.80;7.45;;;;;;;;;;6274568;22;20494;-92
2023/01/21 13:17:54;;;;;;;15.18;7.28;;;;;;;;;;6250718;22;20098;-92
2023/01/21 13:20:52;;;;;;;16.98;8.05;;;;;;;;;;6313874;22;20094;-92
2023/01/21 13:23:52;;;;;;;18.58;6.95;;;;;;;;;;6276771;22;20433;-91
2023/01/21 13:26:57;;;;;;;14.88;7.13;;;;;;;;;;6227279;22;20011;-92
2023/01/21 13:29:55;;;;;;;16.38;6.93;;;;;;;;;;6135032;23;20022;-93
2023/01/21 13:32:39;;;;;;;16.60;7.38;;;;;;;;;;6078426;23;20021;-92
2023/01/21 13:35:41;;;;;;;16.52;7.03;;;;;;;;;;6081820;23;20029;-92
2023/01/21 13:38:43;;;;;;;14.18;6.13;;;;;;;;;;6110748;23;20017;-92
2023/01/21 13:41:13;;;;;;;17.02;6.60;;;;;;;;;;6100530;23;20052;-92
2023/01/21 13:44:28;;;;;;;13.93;6.28;;;;;;;;;;6099931;23;20026;-92
2023/01/21 13:47:42;;;;;;;12.57;5.75;;;;;;;;;;6045966;23;20073;-87
2023/01/21 13:50:27;;;;;;;12.82;5.75;;;;;;;;;;6074480;23;20029;-90
2023/01/21 13:53:16;;;;;;;14.32;5.55;;;;;;;;;;6041907;23;20022;-94
2023/01/21 13:55:51;;;;;;;14.50;5.82;;;;;;;;;;6077305;23;20023;-91
2023/01/21 13:58:47;;;;;;;13.48;4.15;;;;;;;;;;6073418;23;20044;-93
2023/01/21 14:01:23;;;;;;;10.15;4.57;;;;;;;;;;6073895;23;20023;-92
2023/01/21 14:04:20;;;;;;;8.88;3.75;;;;;;;;;;6074257;23;20518;-95
2023/01/21 14:07:35;;;;;;;9.18;3.85;;;;;;;;;;6128588;23;20028;-91
2023/01/21 14:10:14;;;;;;;12.77;4.95;;;;;;;;;;6107357;23;20113;-92
2023/01/21 14:13:19;;;;;;;8.73;4.25;;;;;;;;;;6099152;23;20021;-92
2023/01/21 14:15:59;;;;;;;10.57;4.15;;;;;;;;;;6099601;23;20120;-92
2023/01/21 14:18:43;;;;;;;11.13;4.80;;;;;;;;;;6156802;23;20045;-92
2023/01/21 14:21:16;;;;;;;10.57;4.28;;;;;;;;;;6146335;23;20053;-93
2023/01/21 14:24:16;;;;;;;8.30;3.97;;;;;;;;;;6246594;22;20017;-92
2023/01/21 14:26:50;;;;;;;13.60;5.53;;;;;;;;;;6249410;22;20011;-92
2023/01/21 14:29:45;;;;;;;11.52;5.22;;;;;;;;;;6230460;22;20014;-92
2023/01/21 14:32:21;;;;;;;9.73;4.55;;;;;;;;;;6274436;22;20030;-93
2023/01/21 14:35:26;;;;;;;8.02;4.45;;;;;;;;;;6230416;22;20331;-92
2023/01/21 14:38:27;;;;;;;8.75;4.40;;;;;;;;;;6254891;22;20023;-92
2023/01/21 14:41:09;;;;;;;10.70;4.78;;;;;;;;;;6262326;22;20015;-93
2023/01/21 14:44:03;;;;;;;7.47;3.83;;;;;;;;;;6292719;22;20015;-92
2023/01/21 14:46:33;;;;;;;10.65;4.38;;;;;;;;;;6314493;22;20019;-93
2023/01/21 14:49:39;;;;;;;10.38;3.50;;;;;;;;;;6267438;22;20048;-92
2023/01/21 14:52:13;;;;;;;8.65;3.33;;;;;;;;;;6276973;22;20027;-92
2023/01/21 14:54:43;;;;;;;8.65;3.47;;;;;;;;;;6262111;22;20019;-92
2023/01/21 14:57:24;;;;;;;6.93;3.72;;;;;;;;;;6251671;22;20389;-92
2023/01/21 15:00:22;;;;;;;6.53;3.17;;;;;;;;;;6276461;22;20073;-92
2023/01/21 15:03:18;;;;;;;6.55;3.38;;;;;;;;;;6250152;22;20039;-92
2023/01/21 15:05:50;;;;;;;8.05;3.25;;;;;;;;;;6213502;22;20069;-92
2023/01/21 15:09:20;;;;;;;8.45;3.40;;;;;;;;;;6260285;22;20456;-89
2023/01/21 15:11:52;;;;;;;7.25;3.58;;;;;;;;;;6252361;22;20023;-93
2023/01/21 15:18:10;;;;;;;8.50;3.67;;;;;;;;;;6293188;22;20011;-91
2023/01/21 15:20:46;;;;;;;7.13;3.17;;;;;;;;;;6292582;22;20021;-93
2023/01/21 15:23:39;;;;;;;7.88;3.28;;;;;;;;;;6296362;22;20068;-92
2023/01/21 15:26:10;;;;;;;9.50;4.32;;;;;;;;;;6287847;22;20011;-91
2023/01/21 15:28:48;;;;;;;8.80;3.50;;;;;;;;;;6262115;22;20019;-92
2023/01/21 15:31:20;;;;;;;7.80;3.28;;;;;;;;;;6226421;22;20355;-93
2023/01/21 15:33:49;;;;;;;6.65;2.95;;;;;;;;;;6274561;22;20016;-91
2023/01/21 15:36:33;;;;;;;7.88;3.22;;;;;;;;;;6261359;22;20011;-91
2023/01/21 15:39:11;;;;;;;9.88;3.33;;;;;;;;;;6250173;22;20046;-93
2023/01/21 15:41:49;;;;;;;8.10;3.45;;;;;;;;;;6249368;22;20019;-93
2023/01/21 15:44:24;;;;;;;7.28;3.42;;;;;;;;;;6224314;22;20650;-92
2023/01/21 15:47:29;;;;;;;8.30;3.70;;;;;;;;;;6274419;22;20141;-91
2023/01/21 15:50:15;;;;;;;6.30;3.33;;;;;;;;;;6249238;22;20084;-90
2023/01/21 15:52:52;;;;;;;9.65;3.65;;;;;;;;;;6284966;22;20094;-92